Time;durP1;ratioP1;P1;durP2;ratioP2;P2;SDS_P1;SDS_P2;PMS_P1;PMS_P2;Temp;Humidity;BMP_temperature;BMP_pressure;BME280_temperature;BME280_humidity;BME280_pressure;Samples;Min_cycle;Max_cycle;Signal;HPM_P1;HPM_P2
2022/01/31 00:14:49;;;;;;;44.90;22.90;;;3.30;99.90;;;;;;4715624;30;20065;-91
2022/01/31 00:18:28;;;;;;;;;;;;;;;;;;;;;
2022/01/31 00:28:33;;;;;;;31.00;19.08;;;4.00;99.90;;;;;;4692854;30;20160;-90
2022/01/31 00:52:56;;;;;;;33.58;17.13;;;4.10;99.90;;;;;;4951163;28;20066;-91
2022/01/31 06:03:20;;;;;;;31.30;16.25;;;5.30;99.90;;;;;;4944885;28;20039;-89
2022/01/31 06:13:34;;;;;;;25.92;15.43;;;5.40;99.90;;;;;;4949020;28;20051;-91
2022/01/31 06:27:48;;;;;;;28.00;15.18;;;5.40;99.90;;;;;;4809851;29;20071;-92
2022/01/31 06:31:03;;;;;;;30.27;15.85;;;5.50;99.90;;;;;;4795484;29;20543;-92
2022/01/31 06:34:20;;;;;;;;;;;;;;;;;;;;;
2022/01/31 06:44:39;;;;;;;32.78;15.45;;;6.10;99.90;;;;;;4994402;28;20127;-87
2022/01/31 06:47:28;;;;;;;26.30;15.45;;;6.20;99.90;;;;;;5001766;28;20508;-90
2022/01/31 06:50:38;;;;;;;26.73;16.23;;;6.30;99.90;;;;;;4958626;28;20036;-88
2022/01/31 06:53:28;;;;;;;;;;;;;;;;;;;;;
2022/01/31 06:56:28;;;;;;;;;;;;;;;;;;;;;
2022/01/31 07:09:36;;;;;;;28.67;17.85;;;6.70;99.90;;;;;;4916852;29;20045;-90
2022/01/31 07:12:33;;;;;;;29.77;18.65;;;6.80;99.90;;;;;;4941152;28;20058;-88
2022/01/31 07:15:13;;;;;;;32.97;19.33;;;6.90;99.90;;;;;;5044605;28;20068;-90
2022/01/31 07:17:55;;;;;;;28.35;16.77;;;6.90;99.90;;;;;;5044244;28;20037;-90
2022/01/31 07:20:51;;;;;;;28.40;17.13;;;7.00;99.90;;;;;;5051798;28;20033;-89
2022/01/31 07:23:52;;;;;;;34.05;17.30;;;7.00;99.90;;;;;;5047794;28;20044;-88
2022/01/31 07:26:14;;;;;;;25.65;17.13;;;7.00;99.90;;;;;;5069233;28;20395;-89
2022/01/31 07:29:03;;;;;;;33.83;16.73;;;7.00;99.90;;;;;;5071535;28;20025;-90
2022/01/31 07:31:39;;;;;;;31.08;18.42;;;7.10;99.90;;;;;;5074592;28;20028;-90
2022/01/31 07:34:20;;;;;;;31.08;17.48;;;7.10;99.90;;;;;;5065465;28;20063;-90
2022/01/31 07:37:26;;;;;;;26.73;19.33;;;7.10;99.90;;;;;;5063593;28;20111;-90
2022/01/31 07:40:14;;;;;;;;;;;;;;;;;;;;;
2022/01/31 07:45:46;;;;;;;39.17;20.10;;;7.40;99.90;;;;;;5049495;28;20033;-90
2022/01/31 07:48:56;;;;;;;35.85;20.70;;;7.50;99.90;;;;;;5042789;28;20052;-91
2022/01/31 07:52:13;;;;;;;36.47;21.95;;;7.60;99.90;;;;;;5046093;28;20086;-90
2022/01/31 07:55:12;;;;;;;44.60;22.67;;;7.70;99.90;;;;;;5019784;28;20437;-91
2022/01/31 07:58:16;;;;;;;40.80;23.35;;;7.70;99.90;;;;;;5067283;28;20025;-90
2022/01/31 08:01:03;;;;;;;44.08;22.23;;;7.80;99.90;;;;;;5056500;28;20034;-90
2022/01/31 08:03:54;;;;;;;35.85;22.40;;;7.80;99.90;;;;;;5055659;28;20039;-90
2022/01/31 08:06:29;;;;;;;37.70;23.30;;;7.80;99.90;;;;;;5067132;28;20024;-89
2022/01/31 08:09:45;;;;;;;;;;;;;;;;;;;;;
2022/01/31 08:12:20;;;;;;;42.65;24.80;;;8.00;99.90;;;;;;5041594;28;20032;-89
2022/01/31 08:15:07;;;;;;;36.65;24.73;;;8.10;99.90;;;;;;5047031;28;20079;-89
2022/01/31 08:18:16;;;;;;;38.65;23.20;;;8.20;99.90;;;;;;5065676;28;20029;-89
2022/01/31 08:20:31;;;;;;;43.60;22.40;;;8.20;99.90;;;;;;5059372;28;20573;-89
2022/01/31 08:23:00;;;;;;;42.38;23.65;;;8.30;99.90;;;;;;5054883;28;20462;-86
2022/01/31 08:25:26;;;;;;;41.50;23.23;;;8.30;99.90;;;;;;5066534;28;20029;-87
2022/01/31 08:28:23;;;;;;;42.20;23.50;;;8.40;99.90;;;;;;5079377;28;20040;-87
2022/01/31 08:31:06;;;;;;;48.58;22.92;;;8.40;99.90;;;;;;5065690;28;20498;-87
2022/01/31 08:33:38;;;;;;;36.22;24.70;;;8.50;99.90;;;;;;5060111;28;20037;-90
2022/01/31 08:36:12;;;;;;;45.45;26.90;;;8.50;99.90;;;;;;5064796;28;20085;-91
2022/01/31 08:39:11;;;;;;;44.65;27.95;;;8.50;99.90;;;;;;5061383;28;20036;-92
2022/01/31 08:41:47;;;;;;;35.97;22.85;;;8.50;99.90;;;;;;5065386;28;20514;-90
2022/01/31 08:44:40;;;;;;;42.35;23.92;;;8.60;99.90;;;;;;5065345;28;20442;-88
2022/01/31 08:47:20;;;;;;;39.70;20.73;;;8.70;99.90;;;;;;5062676;28;20032;-89
2022/01/31 08:50:05;;;;;;;35.83;22.33;;;8.70;99.90;;;;;;5066336;28;20031;-88
2022/01/31 08:52:33;;;;;;;37.90;24.27;;;8.80;99.90;;;;;;5062445;28;20108;-87
2022/01/31 08:55:05;;;;;;;36.58;22.63;;;8.80;99.90;;;;;;5070793;28;20029;-87
2022/01/31 08:57:36;;;;;;;44.38;26.15;;;8.90;99.90;;;;;;5072449;28;20032;-90
2022/01/31 09:00:13;;;;;;;45.75;25.52;;;8.90;99.90;;;;;;5080200;28;20032;-87
2022/01/31 09:02:59;;;;;;;45.35;27.45;;;8.90;99.90;;;;;;5071396;28;20105;-88
2022/01/31 09:05:25;;;;;;;44.13;26.35;;;9.10;99.90;;;;;;5072357;28;20025;-89
2022/01/31 09:08:20;;;;;;;41.72;26.25;;;9.10;99.90;;;;;;5066582;28;20032;-88
2022/01/31 09:10:46;;;;;;;45.58;27.83;;;9.20;99.90;;;;;;5075534;28;20028;-88
2022/01/31 09:13:22;;;;;;;46.15;30.05;;;9.20;99.90;;;;;;5077251;28;20039;-88
2022/01/31 09:15:54;;;;;;;43.17;29.88;;;9.30;99.90;;;;;;5061817;28;20029;-87
2022/01/31 09:18:30;;;;;;;56.60;31.23;;;9.30;99.90;;;;;;5068310;28;20016;-88
2022/01/31 09:21:01;;;;;;;46.42;29.02;;;9.40;99.90;;;;;;5071978;28;20036;-88
2022/01/31 09:23:28;;;;;;;45.33;28.85;;;9.50;99.90;;;;;;5075482;28;20034;-88
2022/01/31 09:26:14;;;;;;;62.47;33.25;;;9.50;99.90;;;;;;5076452;28;20491;-88
2022/01/31 09:31:49;;;;;;;51.58;32.22;;;9.50;99.90;;;;;;5084438;28;20036;-88
2022/01/31 09:34:15;;;;;;;51.47;29.33;;;9.50;99.90;;;;;;5075438;28;20036;-88
2022/01/31 09:36:49;;;;;;;62.45;28.90;;;9.60;99.90;;;;;;5069232;28;20031;-87
2022/01/31 09:39:30;;;;;;;45.10;26.30;;;9.60;99.90;;;;;;5076526;28;20452;-88
2022/01/31 09:42:17;;;;;;;44.80;23.65;;;9.70;99.90;;;;;;5064215;28;20064;-88
2022/01/31 09:45:05;;;;;;;33.88;21.38;;;9.70;99.90;;;;;;5092785;28;20023;-89
2022/01/31 09:50:39;;;;;;;48.13;27.42;;;9.80;99.90;;;;;;5082064;28;20034;-88
2022/01/31 09:53:16;;;;;;;35.28;23.67;;;9.90;99.90;;;;;;5071440;28;20131;-88
2022/01/31 09:55:53;;;;;;;40.03;25.77;;;9.90;99.90;;;;;;5077246;28;20122;-88
2022/01/31 09:58:51;;;;;;;42.08;26.05;;;10.00;99.90;;;;;;5069277;28;20032;-88
2022/01/31 10:01:26;;;;;;;40.08;25.00;;;9.90;99.90;;;;;;5088853;28;20509;-88
2022/01/31 10:04:20;;;;;;;39.80;24.65;;;9.90;99.90;;;;;;5074272;28;20036;-87
2022/01/31 10:06:56;;;;;;;43.72;26.85;;;9.80;99.90;;;;;;5064494;28;20040;-88
2022/01/31 10:09:47;;;;;;;38.70;25.65;;;9.80;99.90;;;;;;5066467;28;20024;-88
2022/01/31 10:18:19;;;;;;;36.25;21.52;;;9.80;99.90;;;;;;5083962;28;20036;-89
2022/01/31 10:20:48;;;;;;;35.67;23.40;;;9.80;99.90;;;;;;5071998;28;20028;-90
2022/01/31 10:23:15;;;;;;;38.22;22.42;;;9.80;99.90;;;;;;5084035;28;20039;-90
2022/01/31 10:25:58;;;;;;;32.67;21.90;;;9.80;99.90;;;;;;5079233;28;20024;-89
2022/01/31 10:28:37;;;;;;;39.20;23.58;;;9.70;99.90;;;;;;5059550;28;20028;-89
2022/01/31 10:31:16;;;;;;;30.55;21.13;;;9.70;99.90;;;;;;5071478;28;20039;-89
2022/01/31 10:34:25;;;;;;;31.00;20.67;;;9.70;99.90;;;;;;5068140;28;20522;-89
2022/01/31 10:37:12;;;;;;;33.58;23.50;;;9.70;99.90;;;;;;5074711;28;20023;-89
2022/01/31 10:57:13;;;;;;;40.72;21.05;;;10.00;99.90;;;;;;5093727;28;20008;-88
2022/01/31 10:59:44;;;;;;;33.42;21.83;;;10.00;99.90;;;;;;5087860;28;20127;-90
2022/01/31 11:02:35;;;;;;;36.60;21.55;;;10.10;99.90;;;;;;5096257;28;20028;-91
2022/01/31 11:05:04;;;;;;;30.95;20.60;;;10.10;99.90;;;;;;5084870;28;20023;-90
2022/01/31 11:07:41;;;;;;;38.67;20.48;;;10.20;99.90;;;;;;5082975;28;20016;-91
2022/01/31 11:10:17;;;;;;;47.38;25.73;;;10.20;99.90;;;;;;5078122;28;20031;-88
2022/01/31 11:12:43;;;;;;;63.92;28.20;;;10.20;99.90;;;;;;5085517;28;20058;-88
2022/01/31 11:15:15;;;;;;;43.85;24.55;;;10.20;99.90;;;;;;5093227;28;20024;-93
2022/01/31 11:17:46;;;;;;;39.33;26.15;;;10.20;99.90;;;;;;5094423;28;20020;-88
2022/01/31 11:20:16;;;;;;;38.80;23.58;;;10.10;99.90;;;;;;5082036;28;20081;-92
2022/01/31 11:22:47;;;;;;;40.47;21.42;;;10.10;99.90;;;;;;5056261;28;20058;-90
2022/01/31 11:25:16;;;;;;;38.90;22.27;;;10.00;99.90;;;;;;5070337;28;20038;-88
2022/01/31 11:27:42;;;;;;;41.28;23.45;;;10.00;99.90;;;;;;5070187;28;20033;-88
2022/01/31 11:30:19;;;;;;;36.80;22.45;;;9.90;99.90;;;;;;5070052;28;20036;-87
2022/01/31 11:32:47;;;;;;;32.58;22.23;;;9.90;99.90;;;;;;5092539;28;20135;-90
2022/01/31 11:35:24;;;;;;;37.58;25.35;;;9.90;99.90;;;;;;5073353;28;20498;-86
2022/01/31 11:38:12;;;;;;;37.30;24.95;;;9.80;99.90;;;;;;5085927;28;20065;-90
2022/01/31 11:41:14;;;;;;;30.55;22.80;;;9.80;99.90;;;;;;5084998;28;20027;-85
2022/01/31 11:43:46;;;;;;;44.92;23.35;;;9.90;99.90;;;;;;5084201;28;20542;-85
2022/01/31 11:50:05;;;;;;;29.70;19.95;;;10.10;99.90;;;;;;5060050;28;20029;-87
2022/01/31 11:52:36;;;;;;;32.30;20.47;;;10.30;99.90;;;;;;5083855;28;20107;-88
2022/01/31 11:55:12;;;;;;;29.08;19.88;;;10.40;99.90;;;;;;5097037;28;20293;-88
2022/01/31 11:57:44;;;;;;;29.95;19.17;;;10.50;99.90;;;;;;5067981;28;20027;-89
2022/01/31 12:00:28;;;;;;;28.73;18.47;;;10.60;99.90;;;;;;5078558;28;20118;-89
2022/01/31 12:03:26;;;;;;;31.25;19.50;;;10.70;99.90;;;;;;5076550;28;20012;-89
2022/01/31 12:05:56;;;;;;;31.42;19.88;;;10.90;99.90;;;;;;5070473;28;20032;-89
2022/01/31 12:08:40;;;;;;;33.45;22.17;;;10.90;99.90;;;;;;5073532;28;20497;-88
2022/01/31 12:11:14;;;;;;;34.97;21.70;;;11.10;99.90;;;;;;5070029;28;20058;-89
2022/01/31 12:13:47;;;;;;;29.83;19.20;;;11.20;99.90;;;;;;5069547;28;20399;-89
2022/01/31 12:17:20;;;;;;;27.10;18.30;;;11.30;99.90;;;;;;5083733;28;20030;-90
2022/01/31 12:20:01;;;;;;;25.58;16.75;;;11.30;99.90;;;;;;5003244;28;20033;-76
2022/01/31 12:22:47;;;;;;;25.98;17.05;;;11.30;99.90;;;;;;5014243;28;20038;-89
2022/01/31 12:25:33;;;;;;;25.35;16.55;;;11.20;99.90;;;;;;5048735;28;20033;-88
2022/01/31 12:29:04;;;;;;;;;;;;;;;;;;;;;
2022/01/31 12:31:53;;;;;;;;;;;;;;;;;;;;;
2022/01/31 12:34:44;;;;;;;25.58;16.80;;;10.70;99.90;;;;;;5063620;28;20025;-89
2022/01/31 12:37:29;;;;;;;29.75;18.27;;;10.60;99.90;;;;;;5052015;28;20032;-88
2022/01/31 12:40:03;;;;;;;30.63;17.30;;;10.50;99.90;;;;;;5052300;28;20029;-89
2022/01/31 12:45:24;;;;;;;32.38;22.08;;;10.70;99.90;;;;;;5074316;28;20031;-88
2022/01/31 12:48:14;;;;;;;31.60;20.77;;;10.80;99.90;;;;;;5067366;28;20024;-89
2022/01/31 12:51:26;;;;;;;;;;;;;;;;;;;;;
2022/01/31 12:53:53;;;;;;;23.60;15.13;;;11.00;99.90;;;;;;5071094;28;20029;-88
2022/01/31 12:56:25;;;;;;;29.33;15.95;;;11.00;99.90;;;;;;5043200;28;20028;-88
2022/01/31 12:59:08;;;;;;;26.73;16.27;;;10.90;99.90;;;;;;5048955;28;20111;-89
2022/01/31 13:01:50;;;;;;;25.10;15.40;;;10.90;99.90;;;;;;5072489;28;20032;-90
2022/01/31 13:04:21;;;;;;;30.48;20.88;;;11.00;99.90;;;;;;5047221;28;20116;-87
2022/01/31 13:07:18;;;;;;;31.75;20.05;;;11.10;99.90;;;;;;5050593;28;20057;-87
2022/01/31 13:09:47;;;;;;;28.98;18.42;;;11.30;99.90;;;;;;5052228;28;20056;-87
2022/01/31 13:12:17;;;;;;;26.65;18.92;;;11.50;99.90;;;;;;5051012;28;20033;-88
2022/01/31 13:14:52;;;;;;;29.35;19.35;;;11.60;99.90;;;;;;5048455;28;20111;-86
2022/01/31 13:17:31;;;;;;;31.70;18.85;;;11.80;99.90;;;;;;5063229;28;20111;-87
2022/01/31 13:20:07;;;;;;;31.08;20.23;;;12.00;99.90;;;;;;5070779;28;20581;-88
2022/01/31 13:25:13;;;;;;;32.03;17.70;;;12.40;99.90;;;;;;5063543;28;20020;-87
2022/01/31 13:27:45;;;;;;;24.40;15.88;;;12.50;99.90;;;;;;5065677;28;20025;-88
2022/01/31 13:30:30;;;;;;;25.58;15.23;;;12.50;99.90;;;;;;5068262;28;20025;-89
2022/01/31 13:33:06;;;;;;;27.05;14.52;;;12.50;99.90;;;;;;5057569;28;20068;-89
2022/01/31 13:35:37;;;;;;;61.08;20.40;;;12.50;99.90;;;;;;5068080;28;20029;-89
2022/01/31 13:38:26;;;;;;;44.97;18.95;;;12.60;99.90;;;;;;5084856;28;20027;-91
2022/01/31 13:41:16;;;;;;;29.63;17.63;;;12.80;99.90;;;;;;5090476;28;20021;-90
2022/01/31 13:43:46;;;;;;;32.10;16.67;;;13.10;99.90;;;;;;5082417;28;20055;-94
2022/01/31 13:46:37;;;;;;;29.60;16.73;;;13.30;99.90;;;;;;5059599;28;20047;-93
2022/01/31 13:49:23;;;;;;;31.77;23.30;;;13.40;99.90;;;;;;5067395;28;20020;-91
2022/01/31 13:52:05;;;;;;;32.67;16.83;;;13.60;99.90;;;;;;5072044;28;20036;-92
2022/01/31 13:54:35;;;;;;;37.97;19.60;;;13.90;99.90;;;;;;5073978;28;20117;-94
2022/01/31 13:57:04;;;;;;;33.85;23.10;;;14.30;99.90;;;;;;5073282;28;20024;-94
2022/01/31 13:59:35;;;;;;;24.27;16.20;;;14.60;99.90;;;;;;5079197;28;20025;-94
2022/01/31 14:02:12;;;;;;;21.77;14.93;;;14.90;99.90;;;;;;5075449;28;20028;-93
2022/01/31 14:04:43;;;;;;;22.40;12.98;;;16.00;99.90;;;;;;5085740;28;20278;-92
2022/01/31 14:07:36;;;;;;;26.80;12.80;;;18.30;99.90;;;;;;5075954;28;20036;-93
2022/01/31 14:10:02;;;;;;;;;;;20.90;99.90;;;;;;5058118;28;20040;-93
2022/01/31 14:12:40;;;;;;;19.75;11.38;;;22.70;99.90;;;;;;5069075;28;20381;-91
2022/01/31 14:15:09;;;;;;;15.32;11.07;;;23.40;97.10;;;;;;5073580;28;20489;-92
2022/01/31 14:17:44;;;;;;;18.58;10.50;;;22.30;94.60;;;;;;5081623;28;20033;-93
2022/01/31 14:20:17;;;;;;;19.58;11.88;;;20.70;97.40;;;;;;5071536;28;20032;-92
2022/01/31 14:23:04;;;;;;;;;;;18.80;99.90;;;;;;5072643;28;20045;-93
2022/01/31 14:25:55;;;;;;;17.92;11.75;;;17.60;99.90;;;;;;5071540;28;19908;-94
2022/01/31 14:28:44;;;;;;;20.00;11.68;;;16.40;99.90;;;;;;5081587;28;20033;-91
2022/01/31 14:31:16;;;;;;;22.73;12.02;;;15.50;99.90;;;;;;5072187;28;20036;-89
2022/01/31 14:33:56;;;;;;;22.23;12.63;;;14.90;99.90;;;;;;5098286;28;20098;-95
2022/01/31 14:36:51;;;;;;;17.55;11.93;;;14.40;99.90;;;;;;5077294;28;20123;-92
2022/01/31 14:42:08;;;;;;;20.52;13.63;;;13.70;99.90;;;;;;5071393;28;20174;-93
2022/01/31 14:47:47;;;;;;;23.98;14.40;;;13.20;99.90;;;;;;5074069;28;20044;-93
2022/01/31 14:50:18;;;;;;;20.55;13.45;;;12.80;99.90;;;;;;5082976;28;20025;-95
2022/01/31 14:53:17;;;;;;;26.77;13.05;;;12.50;99.90;;;;;;5081405;28;20028;-94
2022/01/31 14:56:18;;;;;;;25.55;13.38;;;12.40;99.90;;;;;;5087603;28;20404;-95
2022/01/31 14:58:43;;;;;;;22.40;13.70;;;12.20;99.90;;;;;;5087813;28;20033;-93
2022/01/31 15:01:21;;;;;;;31.48;18.52;;;12.10;99.90;;;;;;5080656;28;20698;-92
2022/01/31 15:04:06;;;;;;;20.80;14.43;;;11.90;99.90;;;;;;5082377;28;20021;-94
2022/01/31 15:06:52;;;;;;;21.10;14.68;;;11.80;99.90;;;;;;5070073;28;20107;-94
2022/01/31 15:09:26;;;;;;;27.25;14.63;;;11.70;99.90;;;;;;5078579;28;20013;-93
2022/01/31 15:11:55;;;;;;;24.17;14.25;;;11.60;99.90;;;;;;5076302;28;20029;-94
2022/01/31 15:14:48;;;;;;;22.63;15.07;;;11.50;99.90;;;;;;5077733;28;20086;-95
2022/01/31 15:17:17;;;;;;;31.58;22.02;;;11.40;99.90;;;;;;5083077;28;20044;-93
2022/01/31 15:20:19;;;;;;;42.88;25.55;;;11.30;99.90;;;;;;5092780;28;20433;-94
2022/01/31 15:22:57;;;;;;;30.15;17.42;;;11.20;99.90;;;;;;5073551;28;20052;-94
2022/01/31 15:25:46;;;;;;;32.63;18.65;;;11.10;99.90;;;;;;5098895;28;20023;-95
2022/01/31 15:28:14;;;;;;;28.17;17.60;;;11.10;99.90;;;;;;5084902;28;20039;-93
2022/01/31 15:30:52;;;;;;;29.48;18.58;;;10.80;99.90;;;;;;5046725;28;20124;-93
2022/01/31 15:33:18;;;;;;;45.22;21.42;;;10.60;99.90;;;;;;5064063;28;20033;-87
2022/01/31 15:35:45;;;;;;;36.40;20.48;;;10.50;99.90;;;;;;5074531;28;20040;-83
2022/01/31 15:38:14;;;;;;;26.80;20.15;;;10.40;99.90;;;;;;5061510;28;20467;-82
2022/01/31 15:40:59;;;;;;;42.40;21.35;;;10.30;99.90;;;;;;5050474;28;20024;-82
2022/01/31 15:43:26;;;;;;;31.50;20.48;;;10.20;99.90;;;;;;5048903;28;20027;-83
2022/01/31 15:45:52;;;;;;;37.47;22.55;;;10.20;99.90;;;;;;5072842;28;20032;-83
2022/01/31 15:48:18;;;;;;;36.00;21.83;;;10.20;99.90;;;;;;5067141;28;20017;-82
2022/01/31 15:50:44;;;;;;;33.92;21.60;;;10.20;99.90;;;;;;5071534;28;20556;-83
2022/01/31 15:53:13;;;;;;;36.30;22.02;;;10.10;99.90;;;;;;5061070;28;20065;-82
2022/01/31 15:55:41;;;;;;;32.70;22.27;;;10.00;99.90;;;;;;5070155;28;20016;-81
2022/01/31 15:58:13;;;;;;;26.88;19.83;;;10.10;99.90;;;;;;5064475;28;20029;-83
2022/01/31 16:00:41;;;;;;;31.48;19.05;;;10.00;99.90;;;;;;5065229;28;20139;-84
2022/01/31 16:03:10;;;;;;;36.38;22.35;;;10.10;99.90;;;;;;5051609;28;20037;-81
2022/01/31 16:05:39;;;;;;;33.35;20.83;;;10.10;99.90;;;;;;5071736;28;20026;-80
2022/01/31 16:08:06;;;;;;;32.03;21.95;;;10.00;99.90;;;;;;5073258;28;20115;-83
2022/01/31 16:10:32;;;;;;;42.67;20.98;;;9.90;99.90;;;;;;5065276;28;20048;-82
2022/01/31 16:13:20;;;;;;;37.75;20.98;;;9.90;99.90;;;;;;5064176;28;20037;-86
2022/01/31 16:15:49;;;;;;;25.60;19.00;;;9.70;99.90;;;;;;5071040;28;20029;-81
2022/01/31 16:18:17;;;;;;;34.28;21.20;;;9.70;99.90;;;;;;5056901;28;20063;-80
2022/01/31 16:20:47;;;;;;;35.97;21.10;;;9.60;99.90;;;;;;5062875;28;20048;-80
2022/01/31 16:23:13;;;;;;;37.60;20.65;;;9.50;99.90;;;;;;5075636;28;20044;-81
2022/01/31 16:25:42;;;;;;;35.88;21.92;;;9.40;99.90;;;;;;5093921;28;20042;-81
2022/01/31 16:28:14;;;;;;;28.55;17.55;;;9.30;99.90;;;;;;5090221;28;20027;-80
2022/01/31 16:30:40;;;;;;;32.35;16.40;;;9.10;99.90;;;;;;5081707;28;20021;-80
2022/01/31 16:33:06;;;;;;;23.80;14.35;;;9.00;99.90;;;;;;5096865;28;20112;-79
2022/01/31 16:35:32;;;;;;;23.08;15.68;;;9.00;99.90;;;;;;5090580;28;20115;-79
2022/01/31 16:37:58;;;;;;;21.52;14.75;;;8.90;99.90;;;;;;5080536;28;20082;-79
2022/01/31 16:40:30;;;;;;;23.25;14.65;;;8.80;99.90;;;;;;5085755;28;20031;-81
2022/01/31 16:42:56;;;;;;;23.70;13.35;;;8.70;99.90;;;;;;5059988;28;20056;-80
2022/01/31 16:45:23;;;;;;;22.67;13.80;;;8.60;99.90;;;;;;5089214;28;20439;-80
2022/01/31 16:47:52;;;;;;;23.05;14.20;;;8.50;99.90;;;;;;5082845;28;20023;-80
2022/01/31 16:50:27;;;;;;;27.45;18.20;;;8.40;99.90;;;;;;5086348;28;20401;-80
2022/01/31 16:52:55;;;;;;;16.90;13.00;;;8.30;99.90;;;;;;5058503;28;20032;-79
2022/01/31 16:55:25;;;;;;;16.88;13.60;;;8.30;99.90;;;;;;5089299;28;20103;-79
2022/01/31 16:57:52;;;;;;;15.88;11.70;;;8.20;99.90;;;;;;5065065;28;20487;-80
2022/01/31 17:00:18;;;;;;;14.13;10.35;;;8.10;99.90;;;;;;5084412;28;20023;-78
2022/01/31 17:02:46;;;;;;;14.00;10.30;;;8.00;99.90;;;;;;5077031;28;20095;-79
2022/01/31 17:05:13;;;;;;;12.85;9.93;;;7.90;99.90;;;;;;5086116;28;20032;-83
2022/01/31 17:07:39;;;;;;;14.07;9.82;;;8.00;99.90;;;;;;5083288;28;20078;-81
2022/01/31 17:10:09;;;;;;;12.30;8.38;;;8.00;99.90;;;;;;5087254;28;20024;-81
2022/01/31 17:12:35;;;;;;;13.13;7.90;;;8.10;99.90;;;;;;5070371;28;20017;-81
2022/01/31 17:15:11;;;;;;;9.65;7.47;;;8.20;99.90;;;;;;5092605;28;20028;-81
2022/01/31 17:17:41;;;;;;;15.32;8.73;;;8.30;99.90;;;;;;5064924;28;20085;-81
2022/01/31 17:20:07;;;;;;;17.48;12.05;;;8.40;99.90;;;;;;5085213;28;20028;-81
2022/01/31 17:22:34;;;;;;;12.50;8.80;;;8.40;99.90;;;;;;5081322;28;20052;-80
2022/01/31 17:25:04;;;;;;;16.33;9.57;;;8.40;99.90;;;;;;5089617;28;20016;-82
2022/01/31 17:27:33;;;;;;;15.70;9.80;;;8.40;99.90;;;;;;5083503;28;20029;-82
2022/01/31 17:30:00;;;;;;;18.23;11.07;;;8.30;99.90;;;;;;5086865;28;20190;-81
2022/01/31 17:32:26;;;;;;;13.20;8.40;;;8.20;99.90;;;;;;5078171;28;20061;-81
2022/01/31 17:34:52;;;;;;;9.00;6.82;;;8.20;99.90;;;;;;5088068;28;20028;-81
2022/01/31 17:37:21;;;;;;;8.35;6.18;;;8.10;99.90;;;;;;5063213;28;20033;-81
2022/01/31 17:39:47;;;;;;;5.80;4.18;;;8.00;99.90;;;;;;5081248;28;20394;-81
2022/01/31 17:42:23;;;;;;;3.95;3.45;;;8.00;99.90;;;;;;5059744;28;20025;-81
2022/01/31 17:44:57;;;;;;;3.78;2.88;;;8.10;99.90;;;;;;5089709;28;20028;-80
2022/01/31 17:47:23;;;;;;;2.92;2.35;;;8.00;99.90;;;;;;5084461;28;20013;-81
2022/01/31 17:49:49;;;;;;;3.45;3.08;;;7.90;99.90;;;;;;5086978;28;20069;-80
2022/01/31 17:52:15;;;;;;;6.47;3.05;;;7.90;99.90;;;;;;5079286;28;20117;-81
2022/01/31 17:54:41;;;;;;;3.28;2.97;;;7.80;99.90;;;;;;5088711;28;20087;-81
2022/01/31 17:57:07;;;;;;;3.92;3.00;;;7.80;99.90;;;;;;5082016;28;20031;-80
2022/01/31 17:59:34;;;;;;;3.20;2.90;;;7.70;99.90;;;;;;5087921;28;20028;-80
2022/01/31 18:02:03;;;;;;;3.08;2.78;;;7.60;99.90;;;;;;5079905;28;20025;-82
2022/01/31 18:04:30;;;;;;;2.97;2.67;;;7.60;99.90;;;;;;5084717;28;20070;-81
2022/01/31 18:06:56;;;;;;;7.88;4.90;;;7.50;99.90;;;;;;5086990;28;20123;-81
2022/01/31 18:09:25;;;;;;;33.03;18.45;;;7.40;99.90;;;;;;5074560;28;20017;-81
2022/01/31 18:11:51;;;;;;;24.38;12.38;;;7.40;99.90;;;;;;5079058;28;20107;-80
2022/01/31 18:14:19;;;;;;;10.13;6.45;;;7.30;99.90;;;;;;5084954;28;20137;-81
2022/01/31 18:16:45;;;;;;;7.57;4.95;;;7.30;99.90;;;;;;5088414;28;20051;-80
2022/01/31 18:19:11;;;;;;;4.72;4.00;;;7.30;99.90;;;;;;5082962;28;20087;-80
2022/01/31 18:21:37;;;;;;;4.70;3.78;;;7.20;99.90;;;;;;5070388;28;20546;-81
2022/01/31 18:24:04;;;;;;;4.75;3.65;;;7.20;99.90;;;;;;5071382;27;20036;-79
2022/01/31 18:26:33;;;;;;;6.03;4.20;;;7.10;99.90;;;;;;5110865;28;20141;-81
2022/01/31 18:28:59;;;;;;;5.95;4.28;;;7.10;99.90;;;;;;5106578;28;20054;-82
2022/01/31 18:31:39;;;;;;;5.13;4.07;;;7.00;99.90;;;;;;5082916;28;20032;-81
2022/01/31 18:34:05;;;;;;;7.43;4.45;;;7.00;99.90;;;;;;5084758;28;20032;-82
2022/01/31 18:36:34;;;;;;;6.50;4.78;;;6.90;99.90;;;;;;5108221;28;20167;-81
2022/01/31 18:39:00;;;;;;;7.25;4.55;;;6.90;99.90;;;;;;5096197;28;20036;-81
2022/01/31 18:41:29;;;;;;;6.10;4.43;;;6.80;99.90;;;;;;5082608;28;20103;-80
2022/01/31 18:44:10;;;;;;;6.15;4.30;;;6.80;99.90;;;;;;5086243;28;20031;-80
2022/01/31 18:46:36;;;;;;;6.78;5.50;;;6.80;99.90;;;;;;5088695;28;20025;-81
2022/01/31 18:49:04;;;;;;;8.88;5.85;;;6.70;99.90;;;;;;5081867;28;20638;-81
2022/01/31 18:51:42;;;;;;;5.82;4.82;;;6.70;99.90;;;;;;5057469;28;20016;-81
2022/01/31 18:54:09;;;;;;;7.43;5.68;;;6.70;99.90;;;;;;5080391;28;20036;-82
2022/01/31 18:56:35;;;;;;;7.45;4.68;;;6.60;99.90;;;;;;5088060;28;20028;-83
2022/01/31 18:59:05;;;;;;;11.02;4.85;;;6.60;99.90;;;;;;5071821;28;20028;-82
2022/01/31 19:01:32;;;;;;;9.95;4.90;;;6.50;99.90;;;;;;5077770;28;20116;-82
2022/01/31 19:03:58;;;;;;;5.68;4.13;;;6.50;99.90;;;;;;5083928;28;20111;-83
2022/01/31 19:06:26;;;;;;;6.05;4.30;;;6.40;99.90;;;;;;5065685;28;20028;-82
2022/01/31 19:08:52;;;;;;;7.53;4.78;;;6.50;99.90;;;;;;5086641;28;20119;-82
2022/01/31 19:11:22;;;;;;;4.65;4.07;;;6.50;99.90;;;;;;5083195;28;20033;-82
2022/01/31 19:14:09;;;;;;;5.97;4.25;;;6.70;99.90;;;;;;5085113;28;20040;-82
2022/01/31 19:16:35;;;;;;;8.02;4.15;;;6.80;99.90;;;;;;5089419;28;20085;-82
2022/01/31 19:19:02;;;;;;;5.07;3.67;;;6.90;99.90;;;;;;5068107;28;20036;-81
2022/01/31 19:21:29;;;;;;;4.82;3.40;;;6.90;99.90;;;;;;5071736;28;20715;-82
2022/01/31 19:23:59;;;;;;;4.55;3.58;;;6.90;99.90;;;;;;5081680;28;20044;-81
2022/01/31 19:26:28;;;;;;;5.75;3.70;;;6.90;99.90;;;;;;5085489;28;20044;-82
2022/01/31 19:28:54;;;;;;;4.65;3.55;;;6.80;99.90;;;;;;5076563;28;20032;-81
2022/01/31 19:31:21;;;;;;;4.70;3.47;;;6.70;99.90;;;;;;5083747;28;20027;-81
2022/01/31 19:33:52;;;;;;;6.75;5.15;;;6.60;99.90;;;;;;5083074;28;20033;-80
2022/01/31 19:36:18;;;;;;;7.53;5.95;;;6.50;99.90;;;;;;5085491;28;20032;-85
2022/01/31 19:38:47;;;;;;;5.65;4.78;;;6.40;99.90;;;;;;5080485;28;20028;-84
2022/01/31 19:43:58;;;;;;;4.65;3.20;;;6.30;99.90;;;;;;5077260;28;20120;-80
2022/01/31 19:46:24;;;;;;;4.03;3.05;;;6.20;99.90;;;;;;5088269;28;20111;-80
2022/01/31 19:48:56;;;;;;;4.93;3.42;;;6.20;99.90;;;;;;5087739;28;20087;-78
2022/01/31 19:51:31;;;;;;;6.78;3.15;;;6.10;99.90;;;;;;5061342;28;20372;-85
2022/01/31 19:53:58;;;;;;;3.35;3.05;;;6.10;99.90;;;;;;5073463;28;20455;-84
2022/01/31 19:56:28;;;;;;;3.40;2.97;;;6.10;99.90;;;;;;5084092;28;20115;-83
2022/01/31 19:58:55;;;;;;;3.63;2.53;;;6.00;99.90;;;;;;5077723;28;20120;-83
2022/01/31 20:01:22;;;;;;;4.38;2.95;;;5.90;99.90;;;;;;5063024;28;20032;-84
2022/01/31 20:04:05;;;;;;;4.20;2.70;;;5.80;99.90;;;;;;5071603;28;20414;-83
2022/01/31 20:06:31;;;;;;;6.78;3.00;;;5.80;99.90;;;;;;5089019;28;20020;-83
2022/01/31 20:09:08;;;;;;;3.13;2.28;;;6.10;99.90;;;;;;5077996;28;20029;-83
2022/01/31 20:11:35;;;;;;;6.43;2.70;;;6.30;99.90;;;;;;5083352;28;20032;-83
2022/01/31 20:14:16;;;;;;;3.70;2.28;;;6.40;99.90;;;;;;5076429;28;20040;-83
2022/01/31 20:16:44;;;;;;;5.72;2.45;;;6.50;99.90;;;;;;5092513;28;20698;-83
2022/01/31 20:19:10;;;;;;;4.65;2.80;;;6.70;99.90;;;;;;5094645;28;20479;-84
2022/01/31 20:21:36;;;;;;;4.07;2.83;;;6.70;99.90;;;;;;5083452;28;20024;-83
2022/01/31 20:24:04;;;;;;;3.65;2.83;;;6.80;99.90;;;;;;5087289;28;20032;-84
2022/01/31 20:26:34;;;;;;;5.20;2.78;;;6.70;99.90;;;;;;5091483;28;20143;-84
2022/01/31 20:29:00;;;;;;;3.92;2.75;;;6.60;99.90;;;;;;5087177;28;20032;-84
2022/01/31 20:31:27;;;;;;;3.58;2.65;;;6.60;99.90;;;;;;5079396;28;20505;-84
2022/01/31 20:33:56;;;;;;;4.68;3.03;;;6.50;99.90;;;;;;5080098;28;20115;-84
2022/01/31 20:36:26;;;;;;;3.38;2.60;;;6.50;99.90;;;;;;5071473;28;20077;-84
2022/01/31 20:39:18;;;;;;;5.05;2.97;;;6.30;99.90;;;;;;5074167;28;20036;-84
2022/01/31 20:41:47;;;;;;;6.57;4.63;;;6.20;99.90;;;;;;5075366;28;20031;-84
2022/01/31 20:44:18;;;;;;;6.50;4.22;;;6.00;99.90;;;;;;5069677;28;20016;-85
2022/01/31 20:46:48;;;;;;;5.37;3.83;;;5.90;99.90;;;;;;5069936;28;20023;-84
2022/01/31 20:49:13;;;;;;;6.30;3.47;;;5.70;99.90;;;;;;5077903;28;20028;-84
2022/01/31 20:51:40;;;;;;;8.63;5.40;;;5.70;99.90;;;;;;5086177;28;20027;-88
2022/01/31 20:54:06;;;;;;;6.50;3.03;;;5.80;99.90;;;;;;5074127;28;20082;-88
2022/01/31 20:56:32;;;;;;;4.72;3.60;;;5.80;99.90;;;;;;5072991;28;20119;-86